Aérodrome :
LOGIN :

S'inscrire | Disclaimer

   EN    FR    IT 

 










Légende :    VFR   VFR Marginal   IFR   IFR Intensif   IFR Très Intensif
Visi : 
Plafond : 
>= 8 km
>= 3000ft
5 à 8 km
1000 à 3000 ft
1500m à 5 km
500 à 1000 ft
800 à 1500m
200 à 500 ft
< 800m
< 200 ft
Symboles :   Orages  Brouillard  Fortes neiges  Fortes précipitations  Vent > 20 kt
SIGMETs :   Divers  Orages  Givrage  Turbulence  Onde Orograph.  Cendres Volcan.






- Altitude de l'aérodrome : 628 ft
- Code IATA : CMR


LFGA - Colmar-Houssen

DERNIER METAR :
  • 200700Z AUTO 17006KT CAVOK 25/15 Q1021

METARs EXPIRÉS :
  • 200630Z AUTO 17004KT 130V240 CAVOK 24/15 Q1021
  • 200600Z AUTO 22006KT CAVOK 23/15 Q1021
  • 200530Z AUTO 23004KT 150V280 CAVOK 22/15 Q1021
  • 200500Z AUTO VRB02KT CAVOK 21/15 Q1021

TAF N/A



MET'MAP, la Météo Aéronautique d'un coup d'oeil ! - Copyright ORBIFLY Décembre 2007 - Disclaimer

ORBIFLY MET'MAP TEAM :

Programmation & Développement : Alexandra Zaïnal
Sur une idée originale de : Baudouin d'Aumeries
Soutien technique & logistique : Manuel Goepfert
Assistance : Marc-Olivier Méhu

Contact : metmap@orbifly.com




SOURCES & CREDITS :

   NOAA